Time;durP1;ratioP1;P1;durP2;ratioP2;P2;SDS_P1;SDS_P2;PMS_P1;PMS_P2;Temp;Humidity;BMP_temperature;BMP_pressure;BME280_temperature;BME280_humidity;BME280_pressure;Samples;Min_cycle;Max_cycle;Signal;HPM_P1;HPM_P2
2021/05/12 10:16:26;;;;;;;3.72;1.30;;;21.60;45.10;;;0.01;0.00;59042.03;6351576;22;19971;-81
2021/05/12 10:18:52;;;;;;;2.15;1.27;;;21.50;45.10;;;0.01;0.00;59042.03;6312486;22;20017;-80
2021/05/12 10:21:18;;;;;;;6.05;1.50;;;21.50;45.10;;;0.01;0.00;59042.03;6309849;22;20006;-83
2021/05/12 10:23:44;;;;;;;3.35;1.40;;;21.50;45.20;;;0.01;0.00;59042.03;6337168;22;20014;-78
2021/05/12 10:26:11;;;;;;;3.47;1.35;;;21.50;45.20;;;0.01;0.00;59042.03;6309824;22;20014;-79
2021/05/12 10:28:38;;;;;;;3.33;1.30;;;21.50;45.10;;;0.01;0.00;59042.03;6309400;22;20007;-84
2021/05/12 10:31:04;;;;;;;4.30;1.48;;;21.50;45.00;;;0.01;0.00;59042.03;6309696;22;20435;-81
2021/05/12 10:33:52;;;;;;;3.40;1.42;;;21.60;45.10;;;0.01;0.00;59042.03;6309356;22;20084;-78
2021/05/12 10:36:20;;;;;;;6.00;1.65;;;21.50;45.00;;;0.01;0.00;59042.03;6284324;22;20011;-79
2021/05/12 10:38:47;;;;;;;4.45;1.42;;;21.60;45.00;;;0.01;0.00;59042.03;6364085;22;20431;-79
2021/05/12 10:41:41;;;;;;;3.08;1.65;;;21.60;45.00;;;0.01;0.00;59042.03;6365491;22;20010;-80
2021/05/12 10:44:26;;;;;;;2.03;1.17;;;21.60;45.00;;;0.01;0.00;59042.03;6314585;22;20018;-80
2021/05/12 10:47:05;;;;;;;3.03;1.38;;;21.60;45.00;;;0.01;0.00;59042.03;6322217;22;20021;-81
2021/05/12 10:49:32;;;;;;;3.55;1.50;;;21.60;44.80;;;0.01;0.00;59042.03;6365393;22;20339;-83
2021/05/12 10:52:06;;;;;;;4.10;1.80;;;21.60;44.80;;;0.01;0.00;59042.03;6315448;22;20034;-82
2021/05/12 10:54:48;;;;;;;2.28;1.33;;;21.60;44.80;;;0.01;0.00;59042.03;6314200;22;20006;-88
2021/05/12 10:57:47;;;;;;;3.70;1.58;;;21.60;44.80;;;0.01;0.00;59042.03;6312299;22;20015;-83
2021/05/12 11:00:16;;;;;;;3.85;1.50;;;21.60;44.80;;;0.01;0.00;59042.03;6314787;22;20462;-83
2021/05/12 11:02:52;;;;;;;2.03;1.23;;;21.70;44.80;;;0.01;0.00;59042.03;6314825;22;20064;-78
2021/05/12 11:05:19;;;;;;;2.92;1.10;;;21.70;44.70;;;0.01;0.00;59042.03;6315116;22;20044;-83
2021/05/12 11:08:17;;;;;;;3.92;1.52;;;21.70;44.70;;;0.01;0.00;59042.03;6314714;22;20003;-85
2021/05/12 11:11:02;;;;;;;2.63;1.52;;;21.70;44.80;;;0.01;0.00;59042.03;6289261;22;20011;-82
2021/05/12 11:13:31;;;;;;;4.82;1.60;;;21.70;44.80;;;0.01;0.00;59042.03;6288548;22;20013;-85
2021/05/12 11:15:59;;;;;;;7.13;1.60;;;21.70;44.80;;;0.01;0.00;59042.03;6311348;22;20045;-86
2021/05/12 11:18:50;;;;;;;2.47;1.20;;;21.70;44.80;;;0.01;0.00;59042.03;6314033;22;20007;-80
2021/05/12 11:21:16;;;;;;;3.28;1.52;;;21.60;44.80;;;0.01;0.00;59042.03;6289100;22;20044;-79
2021/05/12 11:24:00;;;;;;;2.55;1.20;;;21.60;44.90;;;0.01;0.00;59042.03;6365527;22;20010;-80
2021/05/12 11:31:07;;;;;;;3.67;1.70;;;21.70;44.90;;;0.01;0.00;59042.03;6339246;22;20024;-80
2021/05/12 11:32:07;;;;;;;2.58;1.42;;;21.60;44.90;;;0.01;0.00;59042.03;6320764;22;20452;-80
2021/05/12 11:34:34;;;;;;;2.72;1.45;;;21.70;45.00;;;0.01;0.00;59042.03;6365097;22;20048;-79
2021/05/12 11:37:23;;;;;;;2.45;1.40;;;21.70;45.00;;;0.01;0.00;59042.03;6311898;22;20011;-82
2021/05/12 11:39:50;;;;;;;7.22;1.77;;;21.70;44.90;;;0.01;0.00;59042.03;6311528;22;20010;-81
2021/05/12 11:42:31;;;;;;;1.95;1.15;;;21.70;44.90;;;0.01;0.00;59042.03;6309203;22;20010;-78
2021/05/12 11:45:09;;;;;;;2.85;1.42;;;21.70;44.90;;;0.01;0.00;59042.03;6313803;22;20063;-79
2021/05/12 11:47:43;;;;;;;3.05;1.55;;;21.70;45.00;;;0.01;0.00;59042.03;6361830;22;20145;-78
2021/05/12 11:50:21;;;;;;;4.25;1.40;;;21.70;44.90;;;0.01;0.00;59042.03;6316392;22;20009;-83
2021/05/12 11:52:47;;;;;;;2.88;1.20;;;21.70;44.90;;;0.01;0.00;59042.03;6314699;22;20322;-79
2021/05/12 11:55:13;;;;;;;1.80;1.42;;;21.70;45.40;;;0.01;0.00;59042.03;6364899;22;20007;-80
2021/05/12 11:57:39;;;;;;;3.20;1.30;;;21.70;44.90;;;0.01;0.00;59042.03;6338286;22;20014;-81
2021/05/12 12:00:14;;;;;;;2.70;1.73;;;21.70;44.90;;;0.01;0.00;59042.03;6309219;22;20018;-79
2021/05/12 12:02:40;;;;;;;2.50;1.30;;;21.70;44.80;;;0.01;0.00;59042.03;6311442;22;20015;-84
2021/05/12 12:05:07;;;;;;;2.15;1.17;;;21.80;44.80;;;0.01;0.00;59042.03;6282525;22;20022;-80
2021/05/12 12:07:33;;;;;;;2.63;1.60;;;21.80;44.80;;;0.01;0.00;59042.03;6285672;22;20060;-79
2021/05/12 12:10:07;;;;;;;2.67;1.48;;;21.80;44.70;;;0.01;0.00;59042.03;6365196;22;20365;-80
2021/05/12 12:12:35;;;;;;;3.50;1.40;;;21.80;44.70;;;0.01;0.00;59042.03;6303800;22;20013;-80
2021/05/12 12:15:06;;;;;;;2.15;1.67;;;21.80;44.60;;;0.01;0.00;59042.03;6365577;22;20041;-79
2021/05/12 12:17:32;;;;;;;1.70;1.23;;;21.80;44.60;;;0.01;0.00;59042.03;6316055;22;20010;-79
2021/05/12 12:20:07;;;;;;;3.72;1.50;;;21.80;44.60;;;0.01;0.00;59042.03;6315501;22;20098;-80
2021/05/12 12:22:33;;;;;;;3.40;1.48;;;21.90;44.70;;;0.01;0.00;59042.03;6312949;22;20060;-85
2021/05/12 12:25:17;;;;;;;2.30;1.33;;;21.80;44.70;;;0.01;0.00;59042.03;6316188;22;20018;-80
2021/05/12 12:27:44;;;;;;;3.10;1.67;;;21.90;44.80;;;0.01;0.00;59042.03;6289808;22;20026;-82
2021/05/12 12:30:15;;;;;;;3.08;1.40;;;21.90;44.70;;;0.01;0.00;59042.03;6289643;22;20552;-79
2021/05/12 12:32:41;;;;;;;2.72;1.45;;;21.90;44.70;;;0.01;0.00;59042.03;6315825;22;20003;-79
2021/05/12 12:35:08;;;;;;;2.33;1.30;;;21.90;44.60;;;0.01;0.00;59042.03;6315532;22;20007;-83
2021/05/12 12:37:37;;;;;;;1.83;1.30;;;21.90;44.70;;;0.01;0.00;59042.03;6315769;22;20014;-81
2021/05/12 12:40:09;;;;;;;1.50;1.23;;;21.90;44.60;;;0.01;0.00;59042.03;6315816;22;20089;-80
2021/05/12 12:42:45;;;;;;;2.38;1.20;;;21.90;44.60;;;0.01;0.00;59042.03;6312579;22;20022;-79
2021/05/12 12:45:31;;;;;;;3.92;1.35;;;22.00;44.60;;;0.01;0.00;59042.03;6316274;22;20404;-79
2021/05/12 12:47:59;;;;;;;2.22;1.38;;;22.00;44.60;;;0.01;0.00;59042.03;6312221;22;20435;-85
2021/05/12 12:50:29;;;;;;;2.30;1.42;;;22.00;45.00;;;0.01;0.00;59042.03;6309996;22;20310;-81
2021/05/12 12:52:56;;;;;;;2.67;1.55;;;22.00;44.50;;;0.01;0.00;59042.03;6308105;22;20019;-79
2021/05/12 12:55:28;;;;;;;3.83;1.60;;;22.00;44.60;;;0.01;0.00;59042.03;6283928;22;20428;-80
2021/05/12 12:58:03;;;;;;;2.80;1.42;;;21.90;44.80;;;0.01;0.00;59042.03;6307227;22;20011;-83
2021/05/12 13:00:37;;;;;;;5.22;1.58;;;21.80;44.90;;;0.01;0.00;59042.03;6332672;22;20323;-79
2021/05/12 13:03:21;;;;;;;2.25;1.20;;;21.70;45.00;;;0.01;0.00;59042.03;6309027;22;20593;-79
2021/05/12 13:05:58;;;;;;;3.70;1.67;;;21.80;44.90;;;0.01;0.00;59042.03;6310514;22;20106;-84
2021/05/12 13:08:38;;;;;;;3.55;1.67;;;21.80;45.00;;;0.01;0.00;59042.03;6284246;22;20007;-81
2021/05/12 13:11:03;;;;;;;2.05;1.25;;;21.90;44.90;;;0.01;0.00;59042.03;6309839;22;20478;-84
2021/05/12 13:13:43;;;;;;;4.45;1.60;;;21.90;44.80;;;0.01;0.00;59042.03;6336974;22;20089;-79
2021/05/12 13:16:23;;;;;;;3.08;1.20;;;21.90;44.80;;;0.01;0.00;59042.03;6285855;22;20014;-82
2021/05/12 13:19:06;;;;;;;4.03;1.67;;;21.90;44.70;;;0.01;0.00;59042.03;6283705;22;20070;-83
2021/05/12 13:21:44;;;;;;;3.28;1.38;;;21.90;44.70;;;0.01;0.00;59042.03;6310363;22;20007;-83
2021/05/12 13:24:12;;;;;;;2.08;1.35;;;21.90;44.70;;;0.01;0.00;59042.03;6337696;22;20017;-80
2021/05/12 13:26:41;;;;;;;6.03;1.50;;;21.90;44.70;;;0.01;0.00;59042.03;6310585;22;20039;-79
2021/05/12 13:29:16;;;;;;;4.05;1.75;;;21.90;44.70;;;0.01;0.00;59042.03;6309858;22;20022;-83
2021/05/12 13:31:43;;;;;;;4.13;1.40;;;21.90;44.70;;;0.01;0.00;59042.03;6310818;22;20018;-80
2021/05/12 13:34:16;;;;;;;3.10;1.40;;;22.00;44.80;;;0.01;0.00;59042.03;6283753;22;20081;-86
